Nearby METAR Reports

 

KBGR - Bangor, Maine, USA
Distance from station: E 5mi, 8km
Updated: Tue, 19-Sep-2017 8:53pm EDT
Overcast
Overcast
 Wind from NE
Wind: NE 7 mph , 11 km/h
Temperature: 68°F , 20°C
Dew Point: 66°F , 19°C
Humidity: 94%
Barometer: 30.10 inHg , 1019.3 hPa
Clouds: Overcast
Visibility: 8 miles , 13 km
Cloud details: Overcast 700 ft
2017/09/20 00:53 KBGR 200053Z 05006KT 8SM OVC007 20/19 A3010 RMK AO2 CIG 004V012 SLP191 T02000189
KBHB - Bar Harbor, Maine, USA
Distance from station: SE 37mi, 59km
Updated: Tue, 19-Sep-2017 9:34pm EDT
Mist, Overcast
Mist, Overcast
 Wind from E
Wind: E 6 mph , 9 km/h
Temperature: 64°F , 18°C
Dew Point: 64°F , 18°C
Humidity: 100%
Barometer: 30.11 inHg , 1019.6 hPa
Summary: Mist
Clouds: Overcast
Visibility: 3 miles , 5 km
Cloud details: Overcast 300 ft
2017/09/20 01:34 KBHB 200134Z AUTO 08005KT 3SM BR OVC003 18/18 A3011 RMK AO2 PNO $
 
KWVL - Waterville, Maine, USA
Distance from station: WSW 42mi, 68km
Updated: Tue, 19-Sep-2017 8:56pm EDT
Overcast
Overcast
 Wind from NE
Wind: NE 6 mph , 9 km/h
Temperature: 66°F , 19°C
Dew Point: 64°F , 18°C
Humidity: 94%
Barometer: 30.08 inHg , 1018.6 hPa
Clouds: Overcast
Visibility: 10 miles , 16 km
Cloud details: Mostly cloudy 700 ft
Overcast 1100 ft
2017/09/20 00:56 KWVL 200056Z AUTO 04005KT 10SM BKN007 OVC011 19/18 A3008 RMK AO2 CIG 003V010 SLP212 T01890183
KRKD - Rockland/Knox, Maine, USA
Distance from station: S 52mi, 84km
Updated: Tue, 19-Sep-2017 9:25pm EDT
Fog, Overcast
Fog, Overcast
 Wind from NE
Wind: NE 9 mph , 15 km/h
Temperature: 64°F , 18°C
Dew Point: 64°F , 18°C
Humidity: 100%
Barometer: 30.09 inHg , 1019 hPa
Summary: Fog
Clouds: Overcast
Visibility: 1/2 mile , 2 km
Cloud details: Overcast 100 ft
2017/09/20 01:25 KRKD 200125Z AUTO 05008KT 1/2SM FG OVC001 18/18 A3009 RMK AO2
 
KAUG - Augusta, Maine, USA
Distance from station: SW 55mi, 89km
Updated: Tue, 19-Sep-2017 8:53pm EDT
Overcast
Overcast
 Wind from NE
Wind: NE 5 mph , 7 km/h
Temperature: 66°F , 19°C
Dew Point: 64°F , 18°C
Humidity: 94%
Barometer: 30.10 inHg , 1019.3 hPa
Clouds: Overcast
Visibility: 10 miles , 16 km
Cloud details: Overcast 500 ft
2017/09/20 00:53 KAUG 200053Z AUTO 05004KT 10SM OVC005 19/18 A3010 RMK AO2 CIG 002V008 SLP194 T01890183
KGNR - Greenville, Maine, USA
Distance from station: NW 55mi, 89km
Updated: Tue, 19-Sep-2017 8:56pm EDT

 Wind from SE
Wind: SE 3 mph , 6 km/h
Temperature: 63°F , 17°C
Dew Point: 63°F , 17°C
Humidity: 100%
Barometer: 30.13 inHg , 1020.3 hPa
2017/09/20 00:56 KGNR 200056Z AUTO 14003KT 17/17 A3013 RMK AO1 SLP204 T01720167
 
KMLT - Millinocket, Maine, USA
Distance from station: N 59mi, 95km
Updated: Tue, 19-Sep-2017 8:53pm EDT
Partly cloudy
Partly cloudy
 Wind from calm
Wind: Calm
Temperature: 64°F , 18°C
Dew Point: 64°F , 18°C
Humidity: 100%
Barometer: 30.14 inHg , 1020.7 hPa
Clouds: Partly cloudy
Visibility: 10 miles , 16 km
Cloud details: Few Clouds 1100 ft
Partly cloudy 3900 ft
2017/09/20 00:53 KMLT 200053Z AUTO 00000KT 10SM FEW011 SCT039 18/18 A3014 RMK AO2 SLP209 T01830178 TSNO
KIWI - Wiscasset, Maine, USA
Distance from station: SW 70mi, 113km
Updated: Tue, 19-Sep-2017 8:53pm EDT
Overcast
Overcast
 Wind from calm
Wind: Calm
Temperature: 66°F , 19°C
Dew Point: 66°F , 19°C
Humidity: 100%
Barometer: 30.10 inHg , 1019.3 hPa
Clouds: Overcast
Visibility: 10 miles , 16 km
Cloud details: Overcast 300 ft
2017/09/20 00:53 KIWI 200053Z AUTO 00000KT 10SM OVC003 19/19 A3010 RMK AO2 SLP192 T01940189
 
CWSS - St. Stephen (mar, New Brunswick, Canada
Distance from station: ENE 86mi, 138km
Updated: Tue, 19-Sep-2017 9:00pm EDT

 Wind from calm
Wind: Calm
Temperature: 64°F , 18°C
Dew Point: 63°F , 17°C
Humidity: 94%
2017/09/20 01:00 CWSS 200100Z AUTO 00000KT 18/17 RMK AO1 8PAST HR 6004 SLP202 P0003 T01750167 50008
KLEW - Auburn/Lewiston, Maine, USA
Distance from station: SW 86mi, 138km
Updated: Tue, 19-Sep-2017 8:56pm EDT
Light rain, Mist, Overcast
Light rain, Mist, Overcast
 Wind from NE
Wind: NE 5 mph , 7 km/h
Temperature: 66°F , 19°C
Dew Point: 64°F , 18°C
Humidity: 94%
Barometer: 30.09 inHg , 1019 hPa
Summary: Light rain, Mist
Clouds: Overcast
Visibility: 3 miles , 5 km
Cloud details: Overcast 400 ft
2017/09/20 00:56 KLEW 200056Z AUTO 04004KT 3SM -RA BR OVC004 19/18 A3009 RMK AO2 RAB38 SLP204 P0001 T01890183
 
KHUL - Houlton, Maine, USA
Distance from station: NNE 105mi, 169km
Updated: Tue, 19-Sep-2017 8:53pm EDT
Clear
Clear
 Wind from calm
Wind: Calm
Temperature: 59°F , 15°C
Dew Point: 59°F , 15°C
Humidity: 100%
Barometer: 30.13 inHg , 1020.3 hPa
Clouds: Clear
Visibility: 8 miles , 13 km
2017/09/20 00:53 KHUL 200053Z AUTO 00000KT 8SM CLR 15/15 A3013 RMK AO2 SLP202 T01500150
KPWM - Portland, Maine, USA
Distance from station: SW 105mi, 170km
Updated: Tue, 19-Sep-2017 8:51pm EDT
Mist, Overcast
Mist, Overcast
 Wind from ENE
Wind: ENE 8 mph , 13 km/h
Temperature: 64°F , 18°C
Dew Point: 64°F , 18°C
Humidity: 100%
Barometer: 30.07 inHg , 1018.3 hPa
Summary: Mist
Clouds: Overcast
Visibility: 1 1/2 miles , 2 km
Cloud details: Overcast 300 ft
2017/09/20 00:51 KPWM 200051Z 06007KT 040V110 1 1/2SM BR OVC003 18/18 A3007 RMK AO2 RAE2358 SLP183 P0000 T01830178
 
KBML - Berlin, New Hampshire, USA
Distance from station: W 113mi, 181km
Updated: Tue, 19-Sep-2017 8:52pm EDT
Overcast
Overcast
 Wind from ESE
Wind: ESE 3 mph , 6 km/h
Temperature: 66°F , 19°C
Dew Point: 61°F , 16°C
Humidity: 83%
Barometer: 30.12 inHg , 1020 hPa
Clouds: Overcast
Visibility: 10 miles , 16 km
Cloud details: Few Clouds 2400 ft
Overcast 3900 ft
2017/09/20 00:52 KBML 200052Z AUTO 11003KT 10SM FEW024 OVC039 19/16 A3012 RMK AO2 SLP197 T01940156
KIZG - Fryeburg, Maine, USA
Distance from station: WSW 116mi, 186km
Updated: Tue, 19-Sep-2017 8:54pm EDT
Overcast
Overcast
 Wind from NE
Wind: NE 3 mph , 6 km/h
Temperature: 66°F , 19°C
Dew Point: 66°F , 19°C
Humidity: 100%
Barometer: 30.10 inHg , 1019.3 hPa
Clouds: Overcast
Visibility: 10 miles , 16 km
Cloud details: Overcast 1200 ft
2017/09/20 00:54 KIZG 200054Z AUTO 04003KT 10SM OVC012 19/19 A3010 RMK AO2 SLP193 T01940189
 
CWPE - Point Lepreau, New Brunswick, Canada
Distance from station: E 121mi, 195km
Updated: Tue, 19-Sep-2017 9:00pm EDT

 Wind from ENE
Wind: ENE 6 mph , 9 km/h
Temperature: 66°F , 19°C
Dew Point: 64°F , 18°C
Humidity: 94%
2017/09/20 01:00 CWPE 200100Z AUTO 06005KT 19/18 RMK AO1 SLP199 T01870182 58003
KMWN - Mount Washington, New Hampshire, USA
Distance from station: WSW 123mi, 198km
Updated: Tue, 19-Sep-2017 8:48pm EDT
Drizzle, Fog, Overcast
Drizzle, Fog, Overcast
 Wind from ESE
Wind: ESE 18 mph , 30 km/h
Temperature: 50°F , 10°C
Wind Chill: 44°F , 7°C
Dew Point: 50°F , 10°C
Humidity: 100%
Summary: Drizzle, Fog
Clouds: Overcast
Visibility: 1/16 mile , 2 km
Cloud details: Overcast 100 ft
2017/09/20 00:48 KMWN 200048Z 12016KT 1/16SM DZ FG VV001 10/10 RMK
 
KPQI - Presque Isle, Maine, USA
Distance from station: ESE 136mi, 219km
Updated: Tue, 19-Sep-2017 8:56pm EDT
Clear
Clear
 Wind from WSW
Wind: WSW 3 mph , 6 km/h
Temperature: 59°F , 15°C
Dew Point: 57°F , 14°C
Humidity: 94%
Barometer: 30.13 inHg , 1020.3 hPa
Clouds: Clear
Visibility: 10 miles , 16 km
2017/09/20 00:56 KPQI 200056Z AUTO 25003KT 10SM CLR 15/14 A3013 RMK AO2 SLP245 T01500144
KCAR - Caribou, Maine, USA
Distance from station: NNE 148mi, 238km
Updated: Tue, 19-Sep-2017 8:54pm EDT
Clear
Clear
 Wind from S
Wind: S 5 mph , 7 km/h
Temperature: 63°F , 17°C
Dew Point: 61°F , 16°C
Humidity: 94%
Barometer: 30.11 inHg , 1019.6 hPa
Clouds: Clear
Visibility: 10 miles , 16 km
2017/09/20 00:54 KCAR 200054Z AUTO 17004KT 10SM CLR 17/16 A3011 RMK AO2 SLP200 T01720156 $